createdAt,value
2018-09-14T00:00:11.074Z,20.70
2018-09-14T00:02:46.003Z,20.80
2018-09-14T00:05:20.771Z,20.60
2018-09-14T00:07:55.699Z,20.60
2018-09-14T00:10:32.780Z,20.50
2018-09-14T00:13:07.241Z,20.40
2018-09-14T00:15:41.516Z,20.60
2018-09-14T00:18:16.671Z,20.50
2018-09-14T00:20:51.542Z,20.50
2018-09-14T00:23:25.779Z,20.50
2018-09-14T00:26:00.034Z,20.60
2018-09-14T00:28:34.607Z,20.60
2018-09-14T00:31:09.323Z,20.60
2018-09-14T00:33:43.689Z,20.40
2018-09-14T00:36:18.020Z,20.30
2018-09-14T00:38:52.432Z,20.50
2018-09-14T00:41:27.712Z,20.60
2018-09-14T00:44:02.681Z,20.50
2018-09-14T00:46:37.806Z,20.50
2018-09-14T00:49:12.187Z,20.50
2018-09-14T00:51:48.712Z,20.50
2018-09-14T00:54:29.021Z,20.40
2018-09-14T00:57:03.976Z,20.40
2018-09-14T00:59:41.596Z,20.50
2018-09-14T01:02:15.822Z,20.50
2018-09-14T01:04:49.936Z,20.30
2018-09-14T01:07:24.190Z,20.20
2018-09-14T01:09:58.595Z,20.20
2018-09-14T01:12:32.983Z,20.20
2018-09-14T01:15:07.171Z,20.10
2018-09-14T01:17:43.505Z,20.00
2018-09-14T01:20:20.341Z,19.70
2018-09-14T01:22:58.140Z,20.10
2018-09-14T01:25:33.378Z,20.00
2018-09-14T01:28:07.849Z,20.00
2018-09-14T01:30:43.286Z,20.00
2018-09-14T01:33:17.576Z,20.00
2018-09-14T01:35:57.437Z,19.90
2018-09-14T01:38:35.216Z,20.00
2018-09-14T01:41:09.903Z,20.00
2018-09-14T01:43:45.626Z,20.00
2018-09-14T01:46:26.031Z,20.00
2018-09-14T01:49:01.947Z,19.90
2018-09-14T01:51:36.743Z,19.90
2018-09-14T01:54:11.040Z,19.90
2018-09-14T01:56:45.312Z,19.90
2018-09-14T01:59:20.345Z,20.00
2018-09-14T02:01:55.879Z,19.90
2018-09-14T02:04:30.935Z,19.80
2018-09-14T02:07:05.724Z,19.80
2018-09-14T02:09:40.767Z,19.90
2018-09-14T02:12:17.029Z,20.00
2018-09-14T02:14:51.473Z,20.00
2018-09-14T02:17:25.895Z,19.90
2018-09-14T02:20:00.307Z,19.70
2018-09-14T02:22:34.937Z,19.70
2018-09-14T02:25:09.925Z,19.70
2018-09-14T02:27:44.795Z,19.60
2018-09-14T02:30:19.245Z,19.60
2018-09-14T02:32:53.653Z,20.20
2018-09-14T02:35:30.549Z,19.70
2018-09-14T02:38:04.994Z,19.60
2018-09-14T02:40:39.286Z,19.60
2018-09-14T02:43:13.539Z,19.70
2018-09-14T02:45:48.468Z,19.80
2018-09-14T02:48:22.832Z,19.60
2018-09-14T02:50:57.870Z,19.70
2018-09-14T02:53:32.183Z,19.80
2018-09-14T02:56:06.486Z,19.70
2018-09-14T02:58:40.702Z,19.70
2018-09-14T03:01:14.877Z,19.70
2018-09-14T03:03:49.132Z,19.80
2018-09-14T03:06:24.600Z,19.80
2018-09-14T03:08:58.948Z,19.80
2018-09-14T03:11:34.278Z,19.80
2018-09-14T03:14:08.636Z,19.70
2018-09-14T03:16:42.863Z,19.80
2018-09-14T03:19:17.256Z,19.70
2018-09-14T03:21:51.825Z,19.90
2018-09-14T03:24:26.092Z,19.60
2018-09-14T03:27:00.396Z,19.60
2018-09-14T03:29:34.712Z,19.70
2018-09-14T03:32:09.894Z,19.70
2018-09-14T03:34:44.393Z,19.70
2018-09-14T03:37:18.669Z,19.60
2018-09-14T03:39:52.918Z,19.70
2018-09-14T03:42:27.034Z,19.60
2018-09-14T03:45:01.354Z,19.60
2018-09-14T03:47:35.654Z,19.50
2018-09-14T03:50:09.973Z,19.60
2018-09-14T03:52:44.364Z,19.70
2018-09-14T03:55:18.727Z,19.60
2018-09-14T03:57:54.338Z,19.70
2018-09-14T04:00:28.621Z,19.50
2018-09-14T04:03:02.793Z,19.60
2018-09-14T04:05:38.057Z,19.60
2018-09-14T04:08:12.814Z,19.60
2018-09-14T04:10:47.117Z,19.60
2018-09-14T04:13:21.405Z,19.80
2018-09-14T04:15:55.873Z,19.80
2018-09-14T04:18:30.428Z,19.70
2018-09-14T04:21:04.713Z,19.60
2018-09-14T04:23:39.114Z,19.60
2018-09-14T04:26:13.329Z,20.20
2018-09-14T04:28:48.664Z,19.60
2018-09-14T04:31:23.793Z,19.60
2018-09-14T04:33:58.185Z,19.70
2018-09-14T04:36:33.085Z,19.60
2018-09-14T04:39:09.950Z,19.70
2018-09-14T04:44:25.585Z,19.60
2018-09-14T04:46:59.865Z,19.50
2018-09-14T04:49:34.264Z,19.60
2018-09-14T04:52:08.660Z,19.60
2018-09-14T04:54:42.915Z,19.50
2018-09-14T04:57:17.477Z,19.40
2018-09-14T04:59:52.472Z,19.50
2018-09-14T05:02:26.749Z,19.50
2018-09-14T05:05:01.098Z,19.50
2018-09-14T05:07:36.865Z,19.60
2018-09-14T05:10:11.659Z,19.30
2018-09-14T05:12:46.285Z,19.40
2018-09-14T05:15:21.240Z,19.30
2018-09-14T05:17:55.728Z,19.20
2018-09-14T05:20:30.238Z,19.30
2018-09-14T05:23:05.746Z,19.40
2018-09-14T05:25:40.310Z,19.40
2018-09-14T05:28:19.904Z,19.40
2018-09-14T05:30:54.421Z,19.50
2018-09-14T05:33:34.184Z,19.60
2018-09-14T05:36:10.781Z,19.50
2018-09-14T05:38:46.844Z,19.60
2018-09-14T05:41:23.751Z,19.60
2018-09-14T05:43:58.185Z,19.80
2018-09-14T05:46:34.543Z,20.00
2018-09-14T05:49:09.512Z,20.00
2018-09-14T05:51:44.563Z,20.00
2018-09-14T05:54:19.923Z,20.10
2018-09-14T05:56:55.405Z,20.20
2018-09-14T05:59:30.059Z,20.50
2018-09-14T06:02:04.438Z,20.70
2018-09-14T06:04:38.866Z,20.80
2018-09-14T06:07:13.558Z,21.00
2018-09-14T06:09:47.838Z,21.10
2018-09-14T06:12:22.182Z,21.10
2018-09-14T06:14:56.473Z,21.40
2018-09-14T06:17:30.832Z,21.70
2018-09-14T06:20:07.744Z,21.80
2018-09-14T06:22:43.930Z,21.70
2018-09-14T06:25:18.339Z,22.00
2018-09-14T06:27:53.188Z,22.40
2018-09-14T06:30:28.865Z,22.50
2018-09-14T06:33:03.384Z,22.80
2018-09-14T06:35:37.938Z,22.90
2018-09-14T06:38:12.673Z,23.20
2018-09-14T06:40:47.096Z,23.50
2018-09-14T06:43:21.847Z,22.90
2018-09-14T06:45:56.100Z,23.10
2018-09-14T06:48:31.088Z,23.20
2018-09-14T06:51:05.681Z,23.40
2018-09-14T06:53:40.174Z,23.50
2018-09-14T06:56:15.575Z,23.70
2018-09-14T06:58:49.908Z,23.80
2018-09-14T07:01:25.001Z,24.00
2018-09-14T07:03:59.911Z,24.10
2018-09-14T07:06:36.644Z,24.20
2018-09-14T07:09:10.999Z,24.40
2018-09-14T07:11:46.587Z,24.40
2018-09-14T07:14:21.396Z,24.10
2018-09-14T07:16:55.649Z,24.40
2018-09-14T07:19:31.001Z,24.10
2018-09-14T07:22:05.331Z,23.80
2018-09-14T07:24:39.950Z,23.70
2018-09-14T07:27:17.531Z,23.80
2018-09-14T07:29:51.778Z,22.80
2018-09-14T07:32:26.111Z,23.20
2018-09-14T07:35:00.348Z,23.00
2018-09-14T07:37:35.074Z,21.60
2018-09-14T07:40:09.553Z,21.10
2018-09-14T07:42:50.672Z,20.10
2018-09-14T07:45:27.669Z,17.40
2018-09-14T07:48:02.292Z,15.80
2018-09-14T07:50:36.608Z,13.40
2018-09-14T07:53:11.013Z,12.10
2018-09-14T07:55:46.458Z,8.60
2018-09-14T07:58:20.872Z,8.20
2018-09-14T08:00:56.322Z,8.00
2018-09-14T08:03:32.903Z,7.20
2018-09-14T08:06:07.293Z,6.70
2018-09-14T08:08:41.536Z,5.70
2018-09-14T08:11:16.373Z,4.80
2018-09-14T08:13:50.797Z,4.80
2018-09-14T08:16:24.953Z,4.20
2018-09-14T08:18:59.183Z,1.00
2018-09-14T08:21:33.493Z,1.00
2018-09-14T08:24:08.276Z,1.00
2018-09-14T08:26:44.557Z,1.00
2018-09-14T08:29:19.543Z,1.00
2018-09-14T08:31:54.889Z,1.00
2018-09-14T08:34:30.869Z,1.00
2018-09-14T08:37:06.060Z,1.00
2018-09-14T08:39:40.213Z,1.00
2018-09-14T08:42:16.168Z,1.00
2018-09-14T08:44:52.228Z,1.00
2018-09-14T08:47:29.031Z,1.00
2018-09-14T08:50:04.615Z,1.00
2018-09-14T08:52:39.790Z,1.00
2018-09-14T08:55:15.840Z,1.00
2018-09-14T08:57:51.164Z,1.00
2018-09-14T09:00:26.391Z,1.00
2018-09-14T09:03:01.772Z,1.00
2018-09-14T09:05:37.000Z,1.00
2018-09-14T09:08:12.967Z,1.00
2018-09-14T09:10:48.066Z,1.00
2018-09-14T09:13:22.537Z,1.00
2018-09-14T09:15:56.844Z,1.00
2018-09-14T09:18:31.242Z,1.00
2018-09-14T09:21:05.604Z,1.00
2018-09-14T09:23:39.961Z,1.00
2018-09-14T09:26:14.444Z,1.00
2018-09-14T09:28:48.653Z,1.00
2018-09-14T09:31:23.104Z,1.00
2018-09-14T09:33:57.371Z,1.00
2018-09-14T09:36:31.716Z,1.00
2018-09-14T09:39:08.853Z,1.00
2018-09-14T09:41:43.303Z,1.00
2018-09-14T09:44:17.492Z,1.00
2018-09-14T09:46:51.724Z,1.00
2018-09-14T09:49:26.161Z,1.00
2018-09-14T09:52:00.364Z,1.00
2018-09-14T09:54:34.617Z,1.00
2018-09-14T09:57:08.833Z,1.00
2018-09-14T09:59:43.164Z,1.00
2018-09-14T10:02:22.750Z,1.00
2018-09-14T10:05:03.158Z,1.00
2018-09-14T10:07:37.369Z,1.00
2018-09-14T10:10:12.759Z,1.00
2018-09-14T10:12:46.987Z,1.00
2018-09-14T10:15:21.305Z,1.00
2018-09-14T10:17:55.576Z,1.00
2018-09-14T10:20:30.190Z,1.00
2018-09-14T10:23:05.429Z,1.00
2018-09-14T10:25:39.700Z,1.00
2018-09-14T10:28:14.111Z,1.00
2018-09-14T10:30:48.310Z,1.00
2018-09-14T10:33:22.498Z,1.00
2018-09-14T10:35:57.384Z,1.00
2018-09-14T10:38:32.984Z,1.00
2018-09-14T10:41:09.197Z,1.00
2018-09-14T10:43:44.550Z,1.00
2018-09-14T10:46:18.856Z,1.00
2018-09-14T10:48:53.295Z,1.00
2018-09-14T10:51:27.387Z,1.00
2018-09-14T10:54:01.910Z,1.00
2018-09-14T10:56:37.767Z,1.00
2018-09-14T10:59:12.129Z,1.00
2018-09-14T11:01:46.967Z,1.00
2018-09-14T11:04:21.592Z,1.00
2018-09-14T11:06:56.872Z,1.00
2018-09-14T11:09:32.048Z,1.00
2018-09-14T11:12:06.609Z,1.00
2018-09-14T11:14:40.878Z,1.00
2018-09-14T11:17:15.209Z,1.00
2018-09-14T11:19:49.511Z,1.00
2018-09-14T11:22:23.855Z,1.00
2018-09-14T11:24:58.359Z,1.00
2018-09-14T11:27:33.357Z,1.00
2018-09-14T11:30:08.739Z,1.00
2018-09-14T11:32:42.997Z,1.00
2018-09-14T11:35:17.626Z,1.00
2018-09-14T11:37:53.019Z,1.00
2018-09-14T11:40:27.174Z,1.00
2018-09-14T11:43:01.757Z,1.00
2018-09-14T11:45:36.018Z,1.00
2018-09-14T11:48:10.463Z,1.00
2018-09-14T11:50:44.758Z,1.00
2018-09-14T11:53:19.477Z,1.00
2018-09-14T11:55:53.735Z,1.00
2018-09-14T11:58:28.499Z,1.00
2018-09-14T12:01:03.006Z,1.00
2018-09-14T12:03:59.725Z,1.00
2018-09-14T12:06:34.069Z,1.00
2018-09-14T12:09:11.577Z,1.00
2018-09-14T12:11:46.135Z,1.00
2018-09-14T12:14:20.789Z,1.00
2018-09-14T12:16:58.279Z,1.00
2018-09-14T12:19:33.904Z,1.00
2018-09-14T12:22:09.133Z,1.00
2018-09-14T12:24:43.743Z,1.00
2018-09-14T12:27:18.189Z,1.00
2018-09-14T12:29:53.823Z,1.00
2018-09-14T12:32:29.078Z,1.00
2018-09-14T12:35:04.841Z,1.00
2018-09-14T12:37:39.952Z,1.00
2018-09-14T12:40:14.501Z,1.00
2018-09-14T12:42:49.107Z,1.00
2018-09-14T12:45:23.339Z,1.00
2018-09-14T12:47:59.121Z,1.00
2018-09-14T12:50:33.715Z,1.00
2018-09-14T12:53:08.269Z,1.00
2018-09-14T12:55:44.042Z,1.00
2018-09-14T12:58:19.028Z,1.00
2018-09-14T13:00:53.657Z,1.00
2018-09-14T13:06:12.021Z,1.00
2018-09-14T13:08:46.526Z,1.00
2018-09-14T13:11:21.121Z,1.00
2018-09-14T13:13:58.956Z,1.00
2018-09-14T13:16:33.420Z,1.00
2018-09-14T13:19:16.463Z,1.00
2018-09-14T13:24:50.193Z,1.00
2018-09-14T13:27:27.930Z,1.00
2018-09-14T13:30:02.366Z,1.00
2018-09-14T13:32:39.430Z,1.00
2018-09-14T13:35:14.327Z,1.00
2018-09-14T13:37:50.316Z,1.00
2018-09-14T13:40:25.092Z,1.00
2018-09-14T13:43:00.310Z,1.00
2018-09-14T13:45:34.777Z,1.00
2018-09-14T13:48:09.403Z,1.00
2018-09-14T13:50:43.872Z,1.00
2018-09-14T13:53:18.504Z,1.00
2018-09-14T13:55:55.449Z,1.00
2018-09-14T13:58:30.775Z,1.00
2018-09-14T14:01:07.064Z,1.00
2018-09-14T14:03:45.997Z,1.00
2018-09-14T14:06:21.596Z,1.00
2018-09-14T14:08:55.982Z,1.00
2018-09-14T14:11:30.311Z,1.00
2018-09-14T14:14:05.174Z,1.00
2018-09-14T14:16:39.644Z,1.00
2018-09-14T14:19:15.287Z,1.00
2018-09-14T14:21:49.961Z,1.00
2018-09-14T14:24:24.505Z,1.00
2018-09-14T14:26:59.186Z,1.00
2018-09-14T14:29:36.670Z,1.00
2018-09-14T14:32:11.324Z,1.00
2018-09-14T14:34:46.977Z,1.00
2018-09-14T14:37:22.206Z,1.00
2018-09-14T14:39:56.736Z,1.00
2018-09-14T14:42:32.033Z,1.00
2018-09-14T14:45:06.407Z,1.00
2018-09-14T14:47:40.821Z,1.00
2018-09-14T14:50:15.302Z,1.00
2018-09-14T14:52:50.896Z,1.00
2018-09-14T14:55:25.212Z,1.00
2018-09-14T14:57:59.787Z,1.00
2018-09-14T15:00:34.133Z,1.00
2018-09-14T15:03:09.805Z,1.00
2018-09-14T15:05:44.276Z,1.00
2018-09-14T15:08:19.825Z,1.00
2018-09-14T15:10:54.809Z,1.00
2018-09-14T15:13:29.167Z,1.00
2018-09-14T15:16:04.371Z,1.00
2018-09-14T15:18:39.833Z,1.00
2018-09-14T15:21:16.184Z,1.00
2018-09-14T15:23:52.326Z,1.00
2018-09-14T15:26:26.878Z,1.00
2018-09-14T15:29:01.180Z,1.00
2018-09-14T15:31:54.844Z,1.00
2018-09-14T15:34:29.144Z,1.00
2018-09-14T15:37:03.482Z,1.00
2018-09-14T15:39:37.938Z,1.00
2018-09-14T15:42:12.438Z,1.00
2018-09-14T15:44:48.943Z,1.00
2018-09-14T15:47:23.913Z,1.00
2018-09-14T15:49:58.364Z,1.00
2018-09-14T15:52:32.958Z,1.00
2018-09-14T15:55:08.140Z,1.00
2018-09-14T15:57:42.887Z,1.00
2018-09-14T16:00:20.812Z,1.00
2018-09-14T16:02:55.276Z,1.00
2018-09-14T16:05:31.085Z,1.00
2018-09-14T16:08:05.496Z,1.00
2018-09-14T16:10:41.602Z,1.00
2018-09-14T16:13:15.944Z,1.00
2018-09-14T16:15:52.478Z,1.00
2018-09-14T16:18:26.723Z,1.00
2018-09-14T16:21:00.958Z,1.00
2018-09-14T16:23:35.258Z,1.00
2018-09-14T16:26:09.526Z,1.00
2018-09-14T16:28:44.490Z,1.00
2018-09-14T16:31:18.885Z,1.00
2018-09-14T16:33:53.978Z,1.00
2018-09-14T16:36:29.379Z,1.00
2018-09-14T16:39:04.906Z,1.00
2018-09-14T16:41:39.870Z,1.00
2018-09-14T16:44:14.316Z,1.00
2018-09-14T16:46:48.535Z,1.00
2018-09-14T16:49:22.920Z,1.00
2018-09-14T16:51:57.445Z,1.00
2018-09-14T16:54:31.798Z,1.00
2018-09-14T16:57:06.529Z,1.00
2018-09-14T16:59:41.289Z,1.00
2018-09-14T17:02:15.983Z,1.00
2018-09-14T17:04:51.026Z,1.00
2018-09-14T17:07:25.508Z,1.00
2018-09-14T17:09:59.881Z,1.00
2018-09-14T17:12:34.380Z,1.00
2018-09-14T17:15:10.394Z,1.00
2018-09-14T17:17:46.833Z,1.00
2018-09-14T17:20:21.152Z,1.00
2018-09-14T17:22:56.653Z,1.00
2018-09-14T17:25:31.177Z,1.00
2018-09-14T17:28:07.252Z,1.00
2018-09-14T17:30:42.185Z,1.00
2018-09-14T17:33:19.772Z,1.00
2018-09-14T17:35:54.072Z,1.00
2018-09-14T17:38:28.633Z,1.00
2018-09-14T17:41:05.833Z,1.00
2018-09-14T17:46:19.998Z,1.00
2018-09-14T17:48:54.562Z,1.00
2018-09-14T17:51:29.158Z,1.00
2018-09-14T17:54:03.482Z,1.00
2018-09-14T17:56:38.170Z,1.00
2018-09-14T17:59:12.396Z,1.00
2018-09-14T18:01:46.977Z,1.00
2018-09-14T18:04:21.611Z,1.00
2018-09-14T18:06:56.770Z,1.00
2018-09-14T18:09:31.804Z,1.00
2018-09-14T18:12:07.107Z,1.00
2018-09-14T18:14:41.756Z,1.00
2018-09-14T18:17:16.164Z,1.00
2018-09-14T18:19:50.404Z,1.00
2018-09-14T18:22:24.828Z,1.00
2018-09-14T18:25:00.465Z,1.00
2018-09-14T18:27:34.843Z,1.00
2018-09-14T18:30:09.252Z,1.00
2018-09-14T18:32:44.220Z,1.00
2018-09-14T18:35:18.576Z,1.00
2018-09-14T18:37:52.792Z,1.00
2018-09-14T18:40:27.216Z,1.00
2018-09-14T18:43:01.697Z,1.00
2018-09-14T18:45:36.360Z,1.00
2018-09-14T18:48:10.943Z,1.00
2018-09-14T18:50:45.448Z,1.00
2018-09-14T18:53:23.965Z,1.00
2018-09-14T18:55:58.665Z,1.00
2018-09-14T18:58:33.917Z,1.00
2018-09-14T19:01:08.616Z,1.00
2018-09-14T19:03:43.010Z,1.00
2018-09-14T19:06:17.357Z,1.00
2018-09-14T19:08:51.817Z,1.00
2018-09-14T19:11:26.209Z,1.00
2018-09-14T19:14:00.515Z,1.00
2018-09-14T19:16:35.196Z,1.00
2018-09-14T19:19:09.607Z,1.00
2018-09-14T19:21:44.212Z,1.00
2018-09-14T19:24:18.603Z,1.00
2018-09-14T19:26:52.818Z,1.00
2018-09-14T19:29:27.980Z,1.00
2018-09-14T19:32:02.264Z,1.00
2018-09-14T19:34:36.588Z,1.00
2018-09-14T19:37:10.951Z,1.00
2018-09-14T19:39:45.437Z,1.00
2018-09-14T19:42:19.839Z,1.00
2018-09-14T19:44:54.285Z,1.00
2018-09-14T19:47:28.714Z,1.00
2018-09-14T19:50:03.113Z,1.00
2018-09-14T19:52:38.611Z,1.00
2018-09-14T19:55:12.793Z,1.00
2018-09-14T19:57:47.722Z,1.00
2018-09-14T20:00:22.118Z,1.00
2018-09-14T20:02:56.589Z,1.00
2018-09-14T20:05:32.219Z,1.00
2018-09-14T20:08:07.644Z,1.00
2018-09-14T20:10:42.409Z,1.00
2018-09-14T20:13:16.884Z,1.00
2018-09-14T20:15:51.106Z,1.00
2018-09-14T20:18:27.053Z,1.00
2018-09-14T20:21:01.287Z,1.00
2018-09-14T20:23:36.150Z,1.00
2018-09-14T20:26:10.491Z,1.00
2018-09-14T20:28:44.909Z,1.00
2018-09-14T20:31:19.638Z,1.00
2018-09-14T20:33:54.287Z,1.00
2018-09-14T20:36:29.109Z,1.00
2018-09-14T20:39:03.706Z,1.00
2018-09-14T20:41:38.333Z,1.00
2018-09-14T20:44:13.122Z,1.00
2018-09-14T20:46:47.696Z,1.00
2018-09-14T20:49:22.007Z,1.00
2018-09-14T20:51:56.260Z,1.00
2018-09-14T20:54:30.605Z,1.00
2018-09-14T20:57:04.949Z,1.00
2018-09-14T20:59:39.590Z,1.00
2018-09-14T21:02:14.065Z,1.00
2018-09-14T21:04:48.247Z,1.00
2018-09-14T21:07:22.690Z,1.00
2018-09-14T21:09:57.246Z,1.00
2018-09-14T21:12:31.720Z,1.00
2018-09-14T21:15:06.120Z,1.00
2018-09-14T21:17:40.976Z,1.00
2018-09-14T21:20:15.189Z,1.00
2018-09-14T21:22:49.588Z,1.00
2018-09-14T21:25:23.924Z,1.00
2018-09-14T21:27:58.126Z,1.00
2018-09-14T21:30:32.457Z,1.00
2018-09-14T21:33:06.883Z,1.00
2018-09-14T21:35:41.165Z,1.00
2018-09-14T21:38:15.688Z,1.00
2018-09-14T21:40:50.652Z,1.00
2018-09-14T21:43:25.024Z,1.00
2018-09-14T21:46:00.471Z,1.00
2018-09-14T21:48:34.786Z,1.00
2018-09-14T21:51:10.031Z,1.00
2018-09-14T21:53:44.300Z,1.00
2018-09-14T21:56:18.668Z,1.00
2018-09-14T21:58:53.127Z,1.00
2018-09-14T22:01:28.808Z,1.00
2018-09-14T22:04:03.244Z,1.00
2018-09-14T22:06:37.607Z,1.00
2018-09-14T22:09:11.858Z,1.00
2018-09-14T22:11:46.167Z,1.00
2018-09-14T22:14:20.579Z,1.00
2018-09-14T22:16:54.840Z,1.00
2018-09-14T22:19:29.201Z,1.00
2018-09-14T22:22:03.761Z,1.00
2018-09-14T22:24:38.026Z,1.00
2018-09-14T22:27:12.870Z,1.00
2018-09-14T22:29:47.064Z,1.00
2018-09-14T22:32:21.481Z,1.00
2018-09-14T22:34:56.664Z,1.00
2018-09-14T22:37:31.363Z,1.00
2018-09-14T22:40:06.434Z,1.00
2018-09-14T22:42:41.852Z,1.00
2018-09-14T22:45:16.916Z,1.00
2018-09-14T22:47:51.240Z,1.00
2018-09-14T22:50:25.557Z,1.00
2018-09-14T22:52:59.808Z,1.00
2018-09-14T22:55:34.250Z,1.00
2018-09-14T22:58:09.282Z,1.00
2018-09-14T23:00:49.016Z,1.00
2018-09-14T23:03:23.399Z,1.00
2018-09-14T23:05:57.760Z,1.00
2018-09-14T23:08:32.300Z,1.00
2018-09-14T23:11:08.100Z,1.00
2018-09-14T23:13:42.713Z,1.00
2018-09-14T23:16:17.097Z,1.00
2018-09-14T23:18:51.528Z,1.00
2018-09-14T23:21:25.928Z,1.00
2018-09-14T23:24:00.511Z,1.00
2018-09-14T23:26:35.847Z,1.00
2018-09-14T23:29:10.167Z,1.00
2018-09-14T23:31:44.398Z,1.00
2018-09-14T23:34:18.654Z,1.00
2018-09-14T23:36:53.035Z,1.00
2018-09-14T23:39:27.376Z,1.00
2018-09-14T23:42:01.864Z,1.00
2018-09-14T23:44:36.223Z,1.00
2018-09-14T23:47:10.593Z,1.00
2018-09-14T23:49:44.929Z,1.00
2018-09-14T23:52:20.462Z,1.00
2018-09-14T23:54:54.767Z,1.00
2018-09-14T23:57:29.206Z,1.00
